Time,TemperatureF,DewpointF,PressureIn,WindDirection,WindDirectionDegrees,WindSpeedMPH,WindSpeedGustMPH,Humidity,HourlyPrecipIn,Conditions,Clouds,dailyrainin,SoftwareType,DateUTC
2013-09-18 00:12:00,77.4,70.0,29.99,SSE,166,0.0,0.0,77,0.00,,,0.00,weatherlink.com 1.10,2013-09-18 05:12:00,
2013-09-18 00:27:00,77.1,69.0,30.00,SSE,166,0.0,0.0,77,0.00,,,0.00,weatherlink.com 1.10,2013-09-18 05:27:00,
2013-09-18 00:42:00,77.0,69.0,30.00,SSE,166,0.0,0.0,77,0.00,,,0.00,weatherlink.com 1.10,2013-09-18 05:42:00,
2013-09-18 00:57:00,76.9,70.0,30.00,SSE,166,0.0,0.0,78,0.00,,,0.00,weatherlink.com 1.10,2013-09-18 05:57:00,
2013-09-18 01:12:00,76.7,70.0,30.00,SSE,166,0.0,0.0,79,0.00,,,0.00,weatherlink.com 1.10,2013-09-18 06:12:00,
2013-09-18 01:27:00,76.7,70.0,30.00,SSE,166,0.0,0.0,80,0.00,,,0.00,weatherlink.com 1.10,2013-09-18 06:27:00,
2013-09-18 01:42:00,76.4,70.0,30.00,SSE,166,0.0,0.0,80,0.00,,,0.00,weatherlink.com 1.10,2013-09-18 06:42:00,
2013-09-18 01:57:00,76.1,70.0,30.00,SSE,166,0.0,0.0,80,0.00,,,0.00,weatherlink.com 1.10,2013-09-18 06:57:00,
2013-09-18 02:12:00,75.9,70.0,30.01,SSE,166,0.0,0.0,81,0.00,,,0.00,weatherlink.com 1.10,2013-09-18 07:12:00,
2013-09-18 02:27:00,75.7,70.0,30.00,SSE,166,0.0,0.0,82,0.00,,,0.00,weatherlink.com 1.10,2013-09-18 07:27:00,
2013-09-18 02:42:00,75.4,70.0,30.00,SSE,166,0.0,0.0,82,0.00,,,0.00,weatherlink.com 1.10,2013-09-18 07:42:00,
2013-09-18 02:57:00,75.0,70.0,30.00,SSE,166,0.0,0.0,83,0.00,,,0.00,weatherlink.com 1.10,2013-09-18 07:57:00,
2013-09-18 03:12:00,74.9,69.0,30.00,SSE,166,0.0,1.0,83,0.00,,,0.00,weatherlink.com 1.10,2013-09-18 08:12:00,
2013-09-18 03:27:00,74.6,70.0,29.99,SSE,166,0.0,0.0,84,0.00,,,0.00,weatherlink.com 1.10,2013-09-18 08:27:00,
2013-09-18 03:42:00,74.3,69.0,29.99,SSE,166,0.0,1.0,84,0.00,,,0.00,weatherlink.com 1.10,2013-09-18 08:42:00,
2013-09-18 03:57:00,73.9,69.0,29.99,SSE,166,0.0,0.0,85,0.00,,,0.00,weatherlink.com 1.10,2013-09-18 08:57:00,
2013-09-18 04:12:00,73.6,69.0,29.99,SSE,166,0.0,0.0,85,0.00,,,0.00,weatherlink.com 1.10,2013-09-18 09:12:00,
2013-09-18 04:27:00,73.4,69.0,29.98,SSE,166,0.0,0.0,86,0.00,,,0.00,weatherlink.com 1.10,2013-09-18 09:27:00,
2013-09-18 04:42:00,73.1,69.0,29.99,SSE,166,0.0,0.0,86,0.00,,,0.00,weatherlink.com 1.10,2013-09-18 09:42:00,
2013-09-18 04:57:00,72.9,69.0,29.99,SSE,166,0.0,0.0,86,0.00,,,0.00,weatherlink.com 1.10,2013-09-18 09:57:00,
2013-09-18 05:12:00,72.6,68.0,29.99,SSE,166,0.0,0.0,86,0.00,,,0.00,weatherlink.com 1.10,2013-09-18 10:12:00,
2013-09-18 05:27:00,72.4,68.0,29.99,SSE,166,0.0,0.0,86,0.00,,,0.00,weatherlink.com 1.10,2013-09-18 10:27:00,
2013-09-18 05:42:00,72.3,68.0,29.99,SSE,166,0.0,0.0,87,0.00,,,0.00,weatherlink.com 1.10,2013-09-18 10:42:00,
2013-09-18 05:57:00,72.1,68.0,29.99,SSE,166,0.0,0.0,87,0.00,,,0.00,weatherlink.com 1.10,2013-09-18 10:57:00,
2013-09-18 06:12:00,71.8,68.0,29.99,SSE,166,0.0,0.0,87,0.00,,,0.00,weatherlink.com 1.10,2013-09-18 11:12:00,
2013-09-18 06:27:00,71.8,68.0,29.99,SSE,166,0.0,0.0,87,0.00,,,0.00,weatherlink.com 1.10,2013-09-18 11:27:00,
2013-09-18 06:42:00,71.7,68.0,29.99,SE,145,0.0,0.0,87,0.00,,,0.00,weatherlink.com 1.10,2013-09-18 11:42:00,
2013-09-18 06:57:00,71.6,68.0,29.99,SW,231,0.0,0.0,87,0.00,,,0.00,weatherlink.com 1.10,2013-09-18 11:57:00,
2013-09-18 07:12:00,71.5,68.0,30.00,SW,231,0.0,0.0,87,0.00,,,0.00,weatherlink.com 1.10,2013-09-18 12:12:00,
2013-09-18 07:27:00,71.3,67.0,30.00,SW,231,0.0,0.0,87,0.00,,,0.00,weatherlink.com 1.10,2013-09-18 12:27:00,
2013-09-18 07:42:00,71.4,67.0,30.00,SW,231,0.0,0.0,87,0.00,,,0.00,weatherlink.com 1.10,2013-09-18 12:42:00,
2013-09-18 07:57:00,71.5,68.0,30.01,SW,231,0.0,0.0,87,0.00,,,0.00,weatherlink.com 1.10,2013-09-18 12:57:00,
2013-09-18 08:12:00,71.7,68.0,30.01,SW,231,0.0,0.0,87,0.00,,,0.00,weatherlink.com 1.10,2013-09-18 13:12:00,
2013-09-18 08:27:00,72.1,68.0,30.01,SW,231,0.0,0.0,87,0.00,,,0.00,weatherlink.com 1.10,2013-09-18 13:27:00,
2013-09-18 08:42:00,73.2,69.0,30.02,SW,231,0.0,0.0,86,0.00,,,0.00,weatherlink.com 1.10,2013-09-18 13:42:00,
2013-09-18 08:57:00,74.7,71.0,30.02,ENE,61,0.0,1.0,87,0.00,,,0.00,weatherlink.com 1.10,2013-09-18 13:57:00,
2013-09-18 09:12:00,76.2,72.0,30.02,South,175,0.0,1.0,86,0.00,,,0.00,weatherlink.com 1.10,2013-09-18 14:12:00,
2013-09-18 09:28:00,78.4,73.0,30.02,South,174,0.0,0.0,84,0.00,,,0.00,weatherlink.com 1.10,2013-09-18 14:28:00,
2013-09-18 09:43:00,81.8,74.0,30.02,SSW,207,1.0,3.0,78,0.00,,,0.00,weatherlink.com 1.10,2013-09-18 14:43:00,
2013-09-18 09:58:00,84.3,74.0,30.02,South,181,2.0,3.0,71,0.00,,,0.00,weatherlink.com 1.10,2013-09-18 14:58:00,
2013-09-18 10:13:00,87.0,74.0,30.02,SW,223,3.0,4.0,65,0.00,,,0.00,weatherlink.com 1.10,2013-09-18 15:13:00,
2013-09-18 10:28:00,88.7,72.0,30.02,SSE,159,0.0,5.0,58,0.00,,,0.00,weatherlink.com 1.10,2013-09-18 15:28:00,
2013-09-18 10:43:00,89.9,71.0,30.02,South,173,0.0,6.0,54,0.00,,,0.00,weatherlink.com 1.10,2013-09-18 15:43:00,
2013-09-18 10:58:00,91.3,71.0,30.02,South,178,0.0,4.0,51,0.00,,,0.00,weatherlink.com 1.10,2013-09-18 15:58:00,
2013-09-18 11:13:00,92.3,70.0,30.01,SSE,155,0.0,5.0,49,0.00,,,0.00,weatherlink.com 1.10,2013-09-18 16:13:00,
2013-09-18 11:28:00,92.1,72.0,30.01,SSW,205,0.0,1.0,52,0.00,,,0.00,weatherlink.com 1.10,2013-09-18 16:28:00,
2013-09-18 11:43:00,90.9,72.0,30.02,WSW,243,1.0,6.0,54,0.00,,,0.00,weatherlink.com 1.10,2013-09-18 16:43:00,
2013-09-18 11:58:00,90.2,71.0,30.01,SSE,159,0.0,4.0,54,0.00,,,0.00,weatherlink.com 1.10,2013-09-18 16:58:00,
2013-09-18 12:13:00,91.8,71.0,30.01,SE,131,0.0,7.0,51,0.00,,,0.00,weatherlink.com 1.10,2013-09-18 17:13:00,
2013-09-18 12:28:00,91.2,70.0,30.00,WSW,247,0.0,4.0,50,0.00,,,0.00,weatherlink.com 1.10,2013-09-18 17:28:00,
2013-09-18 12:43:00,91.5,71.0,30.00,South,183,0.0,4.0,52,0.00,,,0.00,weatherlink.com 1.10,2013-09-18 17:43:00,
2013-09-18 12:58:00,93.6,69.0,29.99,WSW,254,2.0,5.0,45,0.00,,,0.00,weatherlink.com 1.10,2013-09-18 17:58:00,
2013-09-18 13:13:00,94.2,69.0,29.98,West,261,0.0,8.0,44,0.00,,,0.00,weatherlink.com 1.10,2013-09-18 18:13:00,
2013-09-18 13:28:00,95.6,70.0,29.97,SE,139,0.0,7.0,43,0.00,,,0.00,weatherlink.com 1.10,2013-09-18 18:28:00,
2013-09-18 13:43:00,95.5,69.0,29.96,WSW,250,2.0,5.0,42,0.00,,,0.00,weatherlink.com 1.10,2013-09-18 18:43:00,
2013-09-18 13:59:00,95.1,68.0,29.96,SE,144,0.0,6.0,41,0.00,,,0.00,weatherlink.com 1.10,2013-09-18 18:59:00,
2013-09-18 14:13:00,94.6,68.0,29.95,SSW,195,0.0,3.0,42,0.00,,,0.00,weatherlink.com 1.10,2013-09-18 19:13:00,
2013-09-18 14:28:00,95.3,67.0,29.95,WNW,296,3.0,4.0,40,0.00,,,0.00,weatherlink.com 1.10,2013-09-18 19:28:00,
2013-09-18 14:43:00,96.5,68.0,29.94,SE,140,0.0,8.0,39,0.00,,,0.00,weatherlink.com 1.10,2013-09-18 19:43:00,
2013-09-18 14:58:00,96.8,67.0,29.93,SE,142,2.0,7.0,38,0.00,,,0.00,weatherlink.com 1.10,2013-09-18 19:58:00,
2013-09-18 15:13:00,97.1,68.0,29.93,SSE,151,4.0,10.0,38,0.00,,,0.00,weatherlink.com 1.10,2013-09-18 20:13:00,
2013-09-18 15:44:00,96.8,66.0,29.92,WSW,256,4.0,8.0,37,0.00,,,0.00,weatherlink.com 1.10,2013-09-18 20:44:00,
2013-09-18 15:58:00,93.9,65.0,29.91,SSE,161,1.0,5.0,39,0.00,,,0.00,weatherlink.com 1.10,2013-09-18 20:58:00,
2013-09-18 16:14:00,93.2,67.0,29.91,SSW,193,0.0,3.0,42,0.00,,,0.00,weatherlink.com 1.10,2013-09-18 21:14:00,
2013-09-18 16:29:00,93.1,67.0,29.91,SE,146,0.0,1.0,42,0.00,,,0.00,weatherlink.com 1.10,2013-09-18 21:29:00,
2013-09-18 16:44:00,92.7,67.0,29.91,SSE,147,1.0,1.0,43,0.00,,,0.00,weatherlink.com 1.10,2013-09-18 21:44:00,
2013-09-18 16:59:00,92.2,67.0,29.91,SW,234,0.0,1.0,44,0.00,,,0.00,weatherlink.com 1.10,2013-09-18 21:59:00,
2013-09-18 17:14:00,92.1,68.0,29.91,SW,234,0.0,1.0,45,0.00,,,0.00,weatherlink.com 1.10,2013-09-18 22:14:00,
2013-09-18 17:44:00,92.4,69.0,29.91,WSW,245,0.0,1.0,46,0.00,,,0.00,weatherlink.com 1.10,2013-09-18 22:44:00,
2013-09-18 17:59:00,91.7,69.0,29.91,WSW,239,0.0,1.0,47,0.00,,,0.00,weatherlink.com 1.10,2013-09-18 22:59:00,
2013-09-18 18:14:00,91.4,68.0,29.91,WSW,239,0.0,1.0,47,0.00,,,0.00,weatherlink.com 1.10,2013-09-18 23:14:00,
2013-09-18 18:29:00,90.7,68.0,29.91,WSW,239,0.0,3.0,47,0.00,,,0.00,weatherlink.com 1.10,2013-09-18 23:29:00,
2013-09-18 18:44:00,90.0,68.0,29.90,WSW,240,0.0,1.0,49,0.00,,,0.00,weatherlink.com 1.10,2013-09-18 23:44:00,
2013-09-18 18:59:00,89.2,68.0,29.91,WSW,238,0.0,2.0,50,0.00,,,0.00,weatherlink.com 1.10,2013-09-18 23:59:00,
2013-09-18 19:14:00,88.4,69.0,29.91,WSW,238,0.0,1.0,52,0.00,,,0.00,weatherlink.com 1.10,2013-09-19 00:14:00,
2013-09-18 19:29:00,87.5,68.0,29.91,WSW,238,0.0,0.0,53,0.00,,,0.00,weatherlink.com 1.10,2013-09-19 00:29:00,
2013-09-18 19:44:00,86.6,69.0,29.91,WSW,238,0.0,0.0,55,0.00,,,0.00,weatherlink.com 1.10,2013-09-19 00:44:00,
2013-09-18 19:59:00,85.2,70.0,29.91,WSW,238,0.0,0.0,60,0.00,,,0.00,weatherlink.com 1.10,2013-09-19 00:59:00,
2013-09-18 20:14:00,84.0,70.0,29.92,WSW,238,0.0,0.0,62,0.00,,,0.00,weatherlink.com 1.10,2013-09-19 01:14:00,
2013-09-18 20:29:00,83.2,69.0,29.93,WSW,238,0.0,0.0,63,0.00,,,0.00,weatherlink.com 1.10,2013-09-19 01:29:00,
2013-09-18 20:44:00,82.3,70.0,29.93,WSW,238,0.0,1.0,66,0.00,,,0.00,weatherlink.com 1.10,2013-09-19 01:44:00,
2013-09-18 20:59:00,81.8,70.0,29.94,WSW,238,0.0,1.0,67,0.00,,,0.00,weatherlink.com 1.10,2013-09-19 01:59:00,
2013-09-18 21:14:00,82.0,70.0,29.94,WSW,238,0.0,0.0,68,0.00,,,0.00,weatherlink.com 1.10,2013-09-19 02:14:00,
2013-09-18 21:29:00,82.1,71.0,29.95,WSW,238,0.0,1.0,68,0.00,,,0.00,weatherlink.com 1.10,2013-09-19 02:29:00,
2013-09-18 21:44:00,81.8,71.0,29.95,WSW,238,0.0,0.0,70,0.00,,,0.00,weatherlink.com 1.10,2013-09-19 02:44:00,
2013-09-18 21:59:00,81.2,71.0,29.96,WSW,238,0.0,0.0,71,0.00,,,0.00,weatherlink.com 1.10,2013-09-19 02:59:00,
2013-09-18 22:14:00,80.7,71.0,29.96,WSW,238,0.0,0.0,73,0.00,,,0.00,weatherlink.com 1.10,2013-09-19 03:14:00,
2013-09-18 22:29:00,80.4,71.0,29.96,WSW,238,0.0,0.0,74,0.00,,,0.00,weatherlink.com 1.10,2013-09-19 03:29:00,
2013-09-18 22:44:00,80.0,71.0,29.97,WSW,238,0.0,0.0,75,0.00,,,0.00,weatherlink.com 1.10,2013-09-19 03:44:00,
2013-09-18 22:59:00,80.3,72.0,29.97,SSE,153,0.0,5.0,76,0.00,,,0.00,weatherlink.com 1.10,2013-09-19 03:59:00,
2013-09-18 23:14:00,80.7,72.0,29.98,SSE,157,0.0,5.0,75,0.00,,,0.00,weatherlink.com 1.10,2013-09-19 04:14:00,
2013-09-18 23:29:00,81.1,73.0,29.98,SE,132,0.0,2.0,75,0.00,,,0.00,weatherlink.com 1.10,2013-09-19 04:29:00,
2013-09-18 23:44:00,81.5,73.0,29.97,SSE,149,0.0,3.0,75,0.00,,,0.00,weatherlink.com 1.10,2013-09-19 04:44:00,
2013-09-18 23:59:00,81.2,73.0,29.97,SSE,150,0.0,1.0,76,0.00,,,0.00,weatherlink.com 1.10,2013-09-19 04:59:00,